sensor_id;sensor_type;location;lat;lon;timestamp;temperature;humidity
63445;DHT22;49573;47.682;9.170;2023-05-19T00:01:17;12.00;68.30
63445;DHT22;49573;47.682;9.170;2023-05-19T00:04:03;12.00;68.70
63445;DHT22;49573;47.682;9.170;2023-05-19T00:06:50;12.00;68.80
63445;DHT22;49573;47.682;9.170;2023-05-19T00:09:37;11.90;69.20
63445;DHT22;49573;47.682;9.170;2023-05-19T00:12:23;11.90;69.00
63445;DHT22;49573;47.682;9.170;2023-05-19T00:15:10;11.80;69.30
63445;DHT22;49573;47.682;9.170;2023-05-19T00:17:58;11.80;69.30
63445;DHT22;49573;47.682;9.170;2023-05-19T00:20:44;11.80;69.40
63445;DHT22;49573;47.682;9.170;2023-05-19T00:23:30;11.80;69.40
63445;DHT22;49573;47.682;9.170;2023-05-19T00:26:16;11.80;69.10
63445;DHT22;49573;47.682;9.170;2023-05-19T00:29:02;11.80;69.60
63445;DHT22;49573;47.682;9.170;2023-05-19T00:31:48;11.70;69.40
63445;DHT22;49573;47.682;9.170;2023-05-19T00:34:35;11.80;69.50
63445;DHT22;49573;47.682;9.170;2023-05-19T00:37:21;11.70;69.50
63445;DHT22;49573;47.682;9.170;2023-05-19T00:40:09;11.70;69.90
63445;DHT22;49573;47.682;9.170;2023-05-19T00:42:55;11.70;70.10
63445;DHT22;49573;47.682;9.170;2023-05-19T00:45:41;11.70;69.80
63445;DHT22;49573;47.682;9.170;2023-05-19T00:48:27;11.70;69.90
63445;DHT22;49573;47.682;9.170;2023-05-19T00:51:15;11.70;70.10
63445;DHT22;49573;47.682;9.170;2023-05-19T00:54:02;11.60;70.20
63445;DHT22;49573;47.682;9.170;2023-05-19T00:56:48;11.60;70.20
63445;DHT22;49573;47.682;9.170;2023-05-19T00:59:34;11.60;70.10
63445;DHT22;49573;47.682;9.170;2023-05-19T01:02:21;11.50;70.70
63445;DHT22;49573;47.682;9.170;2023-05-19T01:05:07;11.50;70.70
63445;DHT22;49573;47.682;9.170;2023-05-19T01:07:55;11.50;70.60
63445;DHT22;49573;47.682;9.170;2023-05-19T01:10:41;11.50;70.90
63445;DHT22;49573;47.682;9.170;2023-05-19T01:13:28;11.50;70.50
63445;DHT22;49573;47.682;9.170;2023-05-19T01:16:21;11.50;71.10
63445;DHT22;49573;47.682;9.170;2023-05-19T01:19:18;11.50;71.20
63445;DHT22;49573;47.682;9.170;2023-05-19T01:22:31;11.50;71.00
63445;DHT22;49573;47.682;9.170;2023-05-19T01:25:42;11.40;71.10
63445;DHT22;49573;47.682;9.170;2023-05-19T01:31:50;11.40;71.20
63445;DHT22;49573;47.682;9.170;2023-05-19T01:34:41;11.40;71.90
63445;DHT22;49573;47.682;9.170;2023-05-19T01:37:28;11.30;72.00
63445;DHT22;49573;47.682;9.170;2023-05-19T01:40:15;11.40;71.60
63445;DHT22;49573;47.682;9.170;2023-05-19T01:43:02;11.40;71.80
63445;DHT22;49573;47.682;9.170;2023-05-19T01:45:48;11.30;72.00
63445;DHT22;49573;47.682;9.170;2023-05-19T01:48:36;11.30;71.90
63445;DHT22;49573;47.682;9.170;2023-05-19T01:51:23;11.30;72.10
63445;DHT22;49573;47.682;9.170;2023-05-19T01:54:09;11.30;72.00
63445;DHT22;49573;47.682;9.170;2023-05-19T01:57:03;11.30;72.00
63445;DHT22;49573;47.682;9.170;2023-05-19T01:59:58;11.30;72.10
63445;DHT22;49573;47.682;9.170;2023-05-19T02:02:56;11.20;72.20
63445;DHT22;49573;47.682;9.170;2023-05-19T02:05:53;11.30;72.00
63445;DHT22;49573;47.682;9.170;2023-05-19T02:08:42;11.20;72.30
63445;DHT22;49573;47.682;9.170;2023-05-19T02:11:35;11.30;72.20
63445;DHT22;49573;47.682;9.170;2023-05-19T02:14:27;11.20;72.60
63445;DHT22;49573;47.682;9.170;2023-05-19T02:17:15;11.20;72.40
63445;DHT22;49573;47.682;9.170;2023-05-19T02:20:03;11.10;72.40
63445;DHT22;49573;47.682;9.170;2023-05-19T02:22:50;11.10;72.40
63445;DHT22;49573;47.682;9.170;2023-05-19T02:25:36;11.10;72.80
63445;DHT22;49573;47.682;9.170;2023-05-19T02:28:22;11.10;72.90
63445;DHT22;49573;47.682;9.170;2023-05-19T02:31:12;11.10;72.90
63445;DHT22;49573;47.682;9.170;2023-05-19T02:33:58;11.00;73.00
63445;DHT22;49573;47.682;9.170;2023-05-19T02:36:44;10.90;74.10
63445;DHT22;49573;47.682;9.170;2023-05-19T02:39:32;10.90;73.90
63445;DHT22;49573;47.682;9.170;2023-05-19T02:42:20;10.90;73.40
63445;DHT22;49573;47.682;9.170;2023-05-19T02:45:06;10.90;72.90
63445;DHT22;49573;47.682;9.170;2023-05-19T02:47:53;10.90;73.10
63445;DHT22;49573;47.682;9.170;2023-05-19T02:50:39;10.90;73.00
63445;DHT22;49573;47.682;9.170;2023-05-19T02:53:25;10.90;73.10
63445;DHT22;49573;47.682;9.170;2023-05-19T02:56:13;10.80;73.00
63445;DHT22;49573;47.682;9.170;2023-05-19T02:58:59;10.80;73.30
63445;DHT22;49573;47.682;9.170;2023-05-19T03:01:46;10.80;73.50
63445;DHT22;49573;47.682;9.170;2023-05-19T03:04:32;10.80;73.10
63445;DHT22;49573;47.682;9.170;2023-05-19T03:07:26;10.80;73.10
63445;DHT22;49573;47.682;9.170;2023-05-19T03:10:12;10.80;73.60
63445;DHT22;49573;47.682;9.170;2023-05-19T03:12:59;10.80;73.10
63445;DHT22;49573;47.682;9.170;2023-05-19T03:15:46;10.80;73.90
63445;DHT22;49573;47.682;9.170;2023-05-19T03:18:32;10.70;73.80
63445;DHT22;49573;47.682;9.170;2023-05-19T03:21:18;10.70;73.70
63445;DHT22;49573;47.682;9.170;2023-05-19T03:24:04;10.70;73.40
63445;DHT22;49573;47.682;9.170;2023-05-19T03:26:51;10.70;73.50
63445;DHT22;49573;47.682;9.170;2023-05-19T03:29:38;10.70;73.70
63445;DHT22;49573;47.682;9.170;2023-05-19T03:32:25;10.70;73.70
63445;DHT22;49573;47.682;9.170;2023-05-19T03:35:11;10.70;73.90
63445;DHT22;49573;47.682;9.170;2023-05-19T03:37:57;10.60;74.00
63445;DHT22;49573;47.682;9.170;2023-05-19T03:40:43;10.60;73.80
63445;DHT22;49573;47.682;9.170;2023-05-19T03:43:29;10.60;73.60
63445;DHT22;49573;47.682;9.170;2023-05-19T03:46:17;10.60;73.50
63445;DHT22;49573;47.682;9.170;2023-05-19T03:49:03;10.60;73.40
63445;DHT22;49573;47.682;9.170;2023-05-19T03:51:49;10.60;73.50
63445;DHT22;49573;47.682;9.170;2023-05-19T03:54:35;10.50;73.30
63445;DHT22;49573;47.682;9.170;2023-05-19T03:57:23;10.60;73.20
63445;DHT22;49573;47.682;9.170;2023-05-19T04:00:10;10.60;73.40
63445;DHT22;49573;47.682;9.170;2023-05-19T04:02:58;10.50;73.50
63445;DHT22;49573;47.682;9.170;2023-05-19T04:05:45;10.60;73.40
63445;DHT22;49573;47.682;9.170;2023-05-19T04:08:31;10.50;73.30
63445;DHT22;49573;47.682;9.170;2023-05-19T04:11:17;10.50;73.70
63445;DHT22;49573;47.682;9.170;2023-05-19T04:14:04;10.50;73.40
63445;DHT22;49573;47.682;9.170;2023-05-19T04:16:51;10.50;73.20
63445;DHT22;49573;47.682;9.170;2023-05-19T04:19:38;10.60;72.90
63445;DHT22;49573;47.682;9.170;2023-05-19T04:22:25;10.50;73.20
63445;DHT22;49573;47.682;9.170;2023-05-19T04:25:11;10.60;73.10
63445;DHT22;49573;47.682;9.170;2023-05-19T04:27:57;10.60;73.10
63445;DHT22;49573;47.682;9.170;2023-05-19T04:30:43;10.60;73.20
63445;DHT22;49573;47.682;9.170;2023-05-19T04:33:31;10.60;73.40
63445;DHT22;49573;47.682;9.170;2023-05-19T04:36:20;10.60;73.40
63445;DHT22;49573;47.682;9.170;2023-05-19T04:39:06;10.60;73.10
63445;DHT22;49573;47.682;9.170;2023-05-19T04:41:53;10.60;73.00
63445;DHT22;49573;47.682;9.170;2023-05-19T04:44:39;10.60;73.00
63445;DHT22;49573;47.682;9.170;2023-05-19T04:47:25;10.70;73.00
63445;DHT22;49573;47.682;9.170;2023-05-19T04:50:12;10.70;73.10
63445;DHT22;49573;47.682;9.170;2023-05-19T04:53:00;10.70;72.90
63445;DHT22;49573;47.682;9.170;2023-05-19T04:55:46;10.70;72.90
63445;DHT22;49573;47.682;9.170;2023-05-19T04:58:32;10.70;73.20
63445;DHT22;49573;47.682;9.170;2023-05-19T05:01:18;10.70;73.10
63445;DHT22;49573;47.682;9.170;2023-05-19T05:04:07;10.80;73.00
63445;DHT22;49573;47.682;9.170;2023-05-19T05:06:53;10.80;73.30
63445;DHT22;49573;47.682;9.170;2023-05-19T05:09:40;10.90;72.90
63445;DHT22;49573;47.682;9.170;2023-05-19T05:12:27;10.90;73.00
63445;DHT22;49573;47.682;9.170;2023-05-19T05:15:14;11.00;72.90
63445;DHT22;49573;47.682;9.170;2023-05-19T05:18:00;11.00;72.80
63445;DHT22;49573;47.682;9.170;2023-05-19T05:20:47;11.00;72.70
63445;DHT22;49573;47.682;9.170;2023-05-19T05:23:33;11.00;73.00
63445;DHT22;49573;47.682;9.170;2023-05-19T05:26:22;11.00;72.70
63445;DHT22;49573;47.682;9.170;2023-05-19T05:29:08;11.10;72.60
63445;DHT22;49573;47.682;9.170;2023-05-19T05:31:55;11.10;72.60
63445;DHT22;49573;47.682;9.170;2023-05-19T05:34:41;11.10;72.80
63445;DHT22;49573;47.682;9.170;2023-05-19T05:37:27;11.10;72.50
63445;DHT22;49573;47.682;9.170;2023-05-19T05:40:13;11.10;72.60
63445;DHT22;49573;47.682;9.170;2023-05-19T05:43:01;11.20;72.60
63445;DHT22;49573;47.682;9.170;2023-05-19T05:45:47;11.20;72.90
63445;DHT22;49573;47.682;9.170;2023-05-19T05:48:33;11.20;72.60
63445;DHT22;49573;47.682;9.170;2023-05-19T05:51:21;11.30;72.50
63445;DHT22;49573;47.682;9.170;2023-05-19T05:54:08;11.30;72.80
63445;DHT22;49573;47.682;9.170;2023-05-19T05:56:57;11.30;72.40
63445;DHT22;49573;47.682;9.170;2023-05-19T05:59:44;11.30;72.30
63445;DHT22;49573;47.682;9.170;2023-05-19T06:02:31;11.40;72.00
63445;DHT22;49573;47.682;9.170;2023-05-19T06:05:18;11.40;72.20
63445;DHT22;49573;47.682;9.170;2023-05-19T06:08:04;11.40;72.10
63445;DHT22;49573;47.682;9.170;2023-05-19T06:10:50;11.50;72.30
63445;DHT22;49573;47.682;9.170;2023-05-19T06:13:37;11.40;72.30
63445;DHT22;49573;47.682;9.170;2023-05-19T06:16:24;11.40;72.20
63445;DHT22;49573;47.682;9.170;2023-05-19T06:19:10;11.50;72.30
63445;DHT22;49573;47.682;9.170;2023-05-19T06:21:56;11.60;72.10
63445;DHT22;49573;47.682;9.170;2023-05-19T06:24:43;11.60;71.90
63445;DHT22;49573;47.682;9.170;2023-05-19T06:27:29;11.60;71.70
63445;DHT22;49573;47.682;9.170;2023-05-19T06:30:15;11.60;71.60
63445;DHT22;49573;47.682;9.170;2023-05-19T06:33:03;11.60;71.70
63445;DHT22;49573;47.682;9.170;2023-05-19T06:35:49;11.70;71.80
63445;DHT22;49573;47.682;9.170;2023-05-19T06:38:35;11.80;71.90
63445;DHT22;49573;47.682;9.170;2023-05-19T06:41:21;11.80;71.60
63445;DHT22;49573;47.682;9.170;2023-05-19T06:44:07;11.80;71.60
63445;DHT22;49573;47.682;9.170;2023-05-19T06:46:53;11.90;71.60
63445;DHT22;49573;47.682;9.170;2023-05-19T06:49:41;11.90;71.30
63445;DHT22;49573;47.682;9.170;2023-05-19T06:52:27;12.00;71.60
63445;DHT22;49573;47.682;9.170;2023-05-19T06:55:13;12.10;71.50
63445;DHT22;49573;47.682;9.170;2023-05-19T06:57:59;12.20;71.50
63445;DHT22;49573;47.682;9.170;2023-05-19T07:00:45;12.20;71.10
63445;DHT22;49573;47.682;9.170;2023-05-19T07:03:31;12.20;71.30
63445;DHT22;49573;47.682;9.170;2023-05-19T07:06:19;12.30;71.00
63445;DHT22;49573;47.682;9.170;2023-05-19T07:09:05;12.30;70.70
63445;DHT22;49573;47.682;9.170;2023-05-19T07:11:51;12.40;70.30
63445;DHT22;49573;47.682;9.170;2023-05-19T07:14:37;12.40;70.50
63445;DHT22;49573;47.682;9.170;2023-05-19T07:17:23;12.50;70.40
63445;DHT22;49573;47.682;9.170;2023-05-19T07:20:10;12.50;70.10
63445;DHT22;49573;47.682;9.170;2023-05-19T07:22:57;12.50;70.20
63445;DHT22;49573;47.682;9.170;2023-05-19T07:25:43;12.50;70.10
63445;DHT22;49573;47.682;9.170;2023-05-19T07:28:29;12.60;70.30
63445;DHT22;49573;47.682;9.170;2023-05-19T07:31:15;12.70;70.50
63445;DHT22;49573;47.682;9.170;2023-05-19T07:34:02;12.80;70.50
63445;DHT22;49573;47.682;9.170;2023-05-19T07:36:48;12.80;69.50
63445;DHT22;49573;47.682;9.170;2023-05-19T07:39:35;12.90;69.30
63445;DHT22;49573;47.682;9.170;2023-05-19T07:42:21;13.00;69.90
63445;DHT22;49573;47.682;9.170;2023-05-19T07:45:08;13.00;69.10
63445;DHT22;49573;47.682;9.170;2023-05-19T07:47:54;13.10;69.20
63445;DHT22;49573;47.682;9.170;2023-05-19T07:50:40;13.20;69.30
63445;DHT22;49573;47.682;9.170;2023-05-19T07:53:26;13.20;69.20
63445;DHT22;49573;47.682;9.170;2023-05-19T07:56:14;13.20;68.70
63445;DHT22;49573;47.682;9.170;2023-05-19T07:59:00;13.40;68.80
63445;DHT22;49573;47.682;9.170;2023-05-19T08:01:46;13.40;68.20
63445;DHT22;49573;47.682;9.170;2023-05-19T08:04:32;13.50;68.00
63445;DHT22;49573;47.682;9.170;2023-05-19T08:07:18;13.50;68.10
63445;DHT22;49573;47.682;9.170;2023-05-19T08:10:05;13.60;68.20
63445;DHT22;49573;47.682;9.170;2023-05-19T08:12:52;13.70;67.30
63445;DHT22;49573;47.682;9.170;2023-05-19T08:15:38;13.80;66.80
63445;DHT22;49573;47.682;9.170;2023-05-19T08:18:24;13.80;66.50
63445;DHT22;49573;47.682;9.170;2023-05-19T08:21:10;13.70;67.30
63445;DHT22;49573;47.682;9.170;2023-05-19T08:23:57;14.00;66.30
63445;DHT22;49573;47.682;9.170;2023-05-19T08:26:43;14.20;66.80
63445;DHT22;49573;47.682;9.170;2023-05-19T08:29:30;14.20;65.70
63445;DHT22;49573;47.682;9.170;2023-05-19T08:32:16;14.30;66.10
63445;DHT22;49573;47.682;9.170;2023-05-19T08:35:03;14.40;65.20
63445;DHT22;49573;47.682;9.170;2023-05-19T08:37:49;14.40;65.20
63445;DHT22;49573;47.682;9.170;2023-05-19T08:40:36;14.40;65.50
63445;DHT22;49573;47.682;9.170;2023-05-19T08:43:22;14.30;65.40
63445;DHT22;49573;47.682;9.170;2023-05-19T08:46:12;14.20;65.40
63445;DHT22;49573;47.682;9.170;2023-05-19T08:49:03;14.30;66.10
63445;DHT22;49573;47.682;9.170;2023-05-19T08:51:54;14.30;66.10
63445;DHT22;49573;47.682;9.170;2023-05-19T08:54:48;14.40;65.30
63445;DHT22;49573;47.682;9.170;2023-05-19T08:57:35;14.40;66.00
63445;DHT22;49573;47.682;9.170;2023-05-19T09:00:23;14.70;64.90
63445;DHT22;49573;47.682;9.170;2023-05-19T09:03:11;14.90;64.80
63445;DHT22;49573;47.682;9.170;2023-05-19T09:05:58;15.00;63.60
63445;DHT22;49573;47.682;9.170;2023-05-19T09:08:44;15.10;64.10
63445;DHT22;49573;47.682;9.170;2023-05-19T09:11:30;15.00;63.50
63445;DHT22;49573;47.682;9.170;2023-05-19T09:14:17;15.10;63.80
63445;DHT22;49573;47.682;9.170;2023-05-19T09:17:03;15.30;63.50
63445;DHT22;49573;47.682;9.170;2023-05-19T09:19:51;15.40;62.90
63445;DHT22;49573;47.682;9.170;2023-05-19T09:22:40;15.30;63.80
63445;DHT22;49573;47.682;9.170;2023-05-19T09:25:26;15.40;63.30
63445;DHT22;49573;47.682;9.170;2023-05-19T09:28:12;15.60;64.00
63445;DHT22;49573;47.682;9.170;2023-05-19T09:31:00;15.70;63.30
63445;DHT22;49573;47.682;9.170;2023-05-19T09:33:46;15.70;63.70
63445;DHT22;49573;47.682;9.170;2023-05-19T09:36:33;15.80;62.50
63445;DHT22;49573;47.682;9.170;2023-05-19T09:39:21;16.00;62.10
63445;DHT22;49573;47.682;9.170;2023-05-19T09:42:07;16.20;61.00
63445;DHT22;49573;47.682;9.170;2023-05-19T09:44:58;16.10;61.30
63445;DHT22;49573;47.682;9.170;2023-05-19T09:47:45;16.20;62.60
63445;DHT22;49573;47.682;9.170;2023-05-19T09:50:31;16.30;61.50
63445;DHT22;49573;47.682;9.170;2023-05-19T09:53:20;16.30;62.00
63445;DHT22;49573;47.682;9.170;2023-05-19T09:56:07;16.30;62.30
63445;DHT22;49573;47.682;9.170;2023-05-19T09:58:54;16.30;61.50
63445;DHT22;49573;47.682;9.170;2023-05-19T10:01:41;16.40;60.90
63445;DHT22;49573;47.682;9.170;2023-05-19T10:04:31;16.70;60.40
63445;DHT22;49573;47.682;9.170;2023-05-19T10:07:18;16.70;60.60
63445;DHT22;49573;47.682;9.170;2023-05-19T10:10:09;16.70;60.10
63445;DHT22;49573;47.682;9.170;2023-05-19T10:12:58;16.80;59.80
63445;DHT22;49573;47.682;9.170;2023-05-19T10:15:45;16.80;59.10
63445;DHT22;49573;47.682;9.170;2023-05-19T10:18:32;16.80;60.10
63445;DHT22;49573;47.682;9.170;2023-05-19T10:21:19;16.90;59.60
63445;DHT22;49573;47.682;9.170;2023-05-19T10:24:05;16.90;60.00
63445;DHT22;49573;47.682;9.170;2023-05-19T10:26:56;16.70;59.20
63445;DHT22;49573;47.682;9.170;2023-05-19T10:29:48;16.70;59.80
63445;DHT22;49573;47.682;9.170;2023-05-19T10:32:39;16.70;60.00
63445;DHT22;49573;47.682;9.170;2023-05-19T10:35:51;17.10;60.70
63445;DHT22;49573;47.682;9.170;2023-05-19T10:38:45;16.90;58.10
63445;DHT22;49573;47.682;9.170;2023-05-19T10:41:40;16.70;58.10
63445;DHT22;49573;47.682;9.170;2023-05-19T10:44:55;16.80;59.20
63445;DHT22;49573;47.682;9.170;2023-05-19T10:47:43;16.90;60.40
63445;DHT22;49573;47.682;9.170;2023-05-19T10:50:34;16.90;59.00
63445;DHT22;49573;47.682;9.170;2023-05-19T10:53:25;16.80;59.30
63445;DHT22;49573;47.682;9.170;2023-05-19T10:56:33;17.00;58.90
63445;DHT22;49573;47.682;9.170;2023-05-19T10:59:32;17.20;59.20
63445;DHT22;49573;47.682;9.170;2023-05-19T11:02:36;17.30;58.70
63445;DHT22;49573;47.682;9.170;2023-05-19T11:05:28;17.40;58.10
63445;DHT22;49573;47.682;9.170;2023-05-19T11:08:14;17.50;58.30
63445;DHT22;49573;47.682;9.170;2023-05-19T11:11:11;17.30;56.70
63445;DHT22;49573;47.682;9.170;2023-05-19T11:13:59;17.50;58.60
63445;DHT22;49573;47.682;9.170;2023-05-19T11:16:51;18.00;56.90
63445;DHT22;49573;47.682;9.170;2023-05-19T11:19:37;18.20;56.90
63445;DHT22;49573;47.682;9.170;2023-05-19T11:22:26;18.30;57.30
63445;DHT22;49573;47.682;9.170;2023-05-19T11:25:17;18.30;55.80
63445;DHT22;49573;47.682;9.170;2023-05-19T11:28:23;18.30;55.80
63445;DHT22;49573;47.682;9.170;2023-05-19T11:31:11;18.20;57.40
63445;DHT22;49573;47.682;9.170;2023-05-19T11:33:59;18.20;55.80
63445;DHT22;49573;47.682;9.170;2023-05-19T11:36:45;18.20;56.30
63445;DHT22;49573;47.682;9.170;2023-05-19T11:39:32;18.20;56.40
63445;DHT22;49573;47.682;9.170;2023-05-19T11:42:18;18.30;56.20
63445;DHT22;49573;47.682;9.170;2023-05-19T11:45:05;18.30;56.90
63445;DHT22;49573;47.682;9.170;2023-05-19T11:47:53;18.40;57.40
63445;DHT22;49573;47.682;9.170;2023-05-19T11:50:41;18.50;57.40
63445;DHT22;49573;47.682;9.170;2023-05-19T11:53:28;18.30;56.20
63445;DHT22;49573;47.682;9.170;2023-05-19T11:56:16;18.50;55.70
63445;DHT22;49573;47.682;9.170;2023-05-19T11:59:02;18.80;55.00
63445;DHT22;49573;47.682;9.170;2023-05-19T12:01:48;19.30;54.30
63445;DHT22;49573;47.682;9.170;2023-05-19T12:04:34;19.60;52.90
63445;DHT22;49573;47.682;9.170;2023-05-19T12:07:23;20.00;52.30
63445;DHT22;49573;47.682;9.170;2023-05-19T12:10:11;20.00;52.80
63445;DHT22;49573;47.682;9.170;2023-05-19T12:12:58;20.10;52.20
63445;DHT22;49573;47.682;9.170;2023-05-19T12:15:44;20.10;51.60
63445;DHT22;49573;47.682;9.170;2023-05-19T12:18:35;20.60;51.30
63445;DHT22;49573;47.682;9.170;2023-05-19T12:21:21;20.50;51.20
63445;DHT22;49573;47.682;9.170;2023-05-19T12:24:09;20.40;51.10
63445;DHT22;49573;47.682;9.170;2023-05-19T12:27:04;20.50;50.90
63445;DHT22;49573;47.682;9.170;2023-05-19T12:29:52;20.30;51.60
63445;DHT22;49573;47.682;9.170;2023-05-19T12:32:38;20.20;51.20
63445;DHT22;49573;47.682;9.170;2023-05-19T12:35:25;20.30;51.20
63445;DHT22;49573;47.682;9.170;2023-05-19T12:38:13;20.30;51.20
63445;DHT22;49573;47.682;9.170;2023-05-19T12:41:00;20.40;52.10
63445;DHT22;49573;47.682;9.170;2023-05-19T12:43:47;20.40;50.70
63445;DHT22;49573;47.682;9.170;2023-05-19T12:46:34;20.20;51.10
63445;DHT22;49573;47.682;9.170;2023-05-19T12:49:20;20.20;51.40
63445;DHT22;49573;47.682;9.170;2023-05-19T12:52:06;20.20;51.70
63445;DHT22;49573;47.682;9.170;2023-05-19T12:54:57;20.20;51.30
63445;DHT22;49573;47.682;9.170;2023-05-19T12:57:48;20.20;51.30
63445;DHT22;49573;47.682;9.170;2023-05-19T13:00:39;20.10;50.30
63445;DHT22;49573;47.682;9.170;2023-05-19T13:03:26;20.00;50.50
63445;DHT22;49573;47.682;9.170;2023-05-19T13:06:12;20.20;51.30
63445;DHT22;49573;47.682;9.170;2023-05-19T13:08:58;20.20;50.50
63445;DHT22;49573;47.682;9.170;2023-05-19T13:11:45;20.30;52.00
63445;DHT22;49573;47.682;9.170;2023-05-19T13:14:37;20.30;50.50
63445;DHT22;49573;47.682;9.170;2023-05-19T13:17:25;20.20;50.10
63445;DHT22;49573;47.682;9.170;2023-05-19T13:20:11;20.30;51.70
63445;DHT22;49573;47.682;9.170;2023-05-19T13:22:58;20.20;51.40
63445;DHT22;49573;47.682;9.170;2023-05-19T13:25:44;20.00;52.00
63445;DHT22;49573;47.682;9.170;2023-05-19T13:28:30;19.80;52.60
63445;DHT22;49573;47.682;9.170;2023-05-19T13:31:18;19.60;52.40
63445;DHT22;49573;47.682;9.170;2023-05-19T13:34:04;19.30;53.40
63445;DHT22;49573;47.682;9.170;2023-05-19T13:36:50;19.00;53.90
63445;DHT22;49573;47.682;9.170;2023-05-19T13:39:36;18.90;54.30
63445;DHT22;49573;47.682;9.170;2023-05-19T13:42:23;18.60;55.10
63445;DHT22;49573;47.682;9.170;2023-05-19T13:45:09;18.40;54.70
63445;DHT22;49573;47.682;9.170;2023-05-19T13:47:57;18.30;55.40
63445;DHT22;49573;47.682;9.170;2023-05-19T13:51:13;18.00;55.20
63445;DHT22;49573;47.682;9.170;2023-05-19T13:54:00;17.90;55.40
63445;DHT22;49573;47.682;9.170;2023-05-19T13:56:46;17.90;56.10
63445;DHT22;49573;47.682;9.170;2023-05-19T13:59:33;18.00;56.00
63445;DHT22;49573;47.682;9.170;2023-05-19T14:02:19;18.00;55.50
63445;DHT22;49573;47.682;9.170;2023-05-19T14:05:06;17.90;56.30
63445;DHT22;49573;47.682;9.170;2023-05-19T14:07:54;17.80;56.60
63445;DHT22;49573;47.682;9.170;2023-05-19T14:10:40;17.80;56.50
63445;DHT22;49573;47.682;9.170;2023-05-19T14:13:27;17.70;56.70
63445;DHT22;49573;47.682;9.170;2023-05-19T14:16:14;17.70;57.30
63445;DHT22;49573;47.682;9.170;2023-05-19T14:19:00;17.60;57.20
63445;DHT22;49573;47.682;9.170;2023-05-19T14:21:46;17.60;57.40
63445;DHT22;49573;47.682;9.170;2023-05-19T14:24:33;17.60;57.10
63445;DHT22;49573;47.682;9.170;2023-05-19T14:27:19;17.70;57.10
63445;DHT22;49573;47.682;9.170;2023-05-19T14:30:06;17.60;57.10
63445;DHT22;49573;47.682;9.170;2023-05-19T14:32:53;17.60;58.10
63445;DHT22;49573;47.682;9.170;2023-05-19T14:35:39;17.50;57.30
63445;DHT22;49573;47.682;9.170;2023-05-19T14:38:25;17.40;57.30
63445;DHT22;49573;47.682;9.170;2023-05-19T14:41:13;17.40;58.00
63445;DHT22;49573;47.682;9.170;2023-05-19T14:43:59;17.30;57.60
63445;DHT22;49573;47.682;9.170;2023-05-19T14:46:45;17.30;58.00
63445;DHT22;49573;47.682;9.170;2023-05-19T14:49:31;17.30;58.00
63445;DHT22;49573;47.682;9.170;2023-05-19T14:52:17;17.30;57.30
63445;DHT22;49573;47.682;9.170;2023-05-19T14:55:04;17.30;57.70
63445;DHT22;49573;47.682;9.170;2023-05-19T14:57:51;17.40;58.20
63445;DHT22;49573;47.682;9.170;2023-05-19T15:00:37;17.50;57.60
63445;DHT22;49573;47.682;9.170;2023-05-19T15:03:23;17.60;58.20
63445;DHT22;49573;47.682;9.170;2023-05-19T15:06:09;17.60;57.90
63445;DHT22;49573;47.682;9.170;2023-05-19T15:08:56;17.50;57.70
63445;DHT22;49573;47.682;9.170;2023-05-19T15:11:42;17.60;57.80
63445;DHT22;49573;47.682;9.170;2023-05-19T15:14:29;17.50;57.30
63445;DHT22;49573;47.682;9.170;2023-05-19T15:17:15;17.50;57.50
63445;DHT22;49573;47.682;9.170;2023-05-19T15:20:02;17.40;57.90
63445;DHT22;49573;47.682;9.170;2023-05-19T15:22:48;17.20;57.80
63445;DHT22;49573;47.682;9.170;2023-05-19T15:25:34;17.30;58.80
63445;DHT22;49573;47.682;9.170;2023-05-19T15:28:20;17.30;58.30
63445;DHT22;49573;47.682;9.170;2023-05-19T15:31:07;17.30;58.50
63445;DHT22;49573;47.682;9.170;2023-05-19T15:33:53;17.10;58.50
63445;DHT22;49573;47.682;9.170;2023-05-19T15:36:39;17.10;59.30
63445;DHT22;49573;47.682;9.170;2023-05-19T15:39:25;17.00;58.20
63445;DHT22;49573;47.682;9.170;2023-05-19T15:42:11;17.00;58.10
63445;DHT22;49573;47.682;9.170;2023-05-19T15:44:57;17.00;59.60
63445;DHT22;49573;47.682;9.170;2023-05-19T15:47:45;16.90;58.60
63445;DHT22;49573;47.682;9.170;2023-05-19T15:50:31;16.90;59.00
63445;DHT22;49573;47.682;9.170;2023-05-19T15:53:17;16.80;58.90
63445;DHT22;49573;47.682;9.170;2023-05-19T15:56:05;16.70;59.10
63445;DHT22;49573;47.682;9.170;2023-05-19T15:58:51;16.70;59.20
63445;DHT22;49573;47.682;9.170;2023-05-19T16:01:37;16.50;58.80
63445;DHT22;49573;47.682;9.170;2023-05-19T16:04:24;16.40;59.60
63445;DHT22;49573;47.682;9.170;2023-05-19T16:07:10;16.40;59.40
63445;DHT22;49573;47.682;9.170;2023-05-19T16:09:57;16.30;59.70
63445;DHT22;49573;47.682;9.170;2023-05-19T16:12:43;16.30;59.70
63445;DHT22;49573;47.682;9.170;2023-05-19T16:15:29;16.30;60.10
63445;DHT22;49573;47.682;9.170;2023-05-19T16:18:15;16.30;60.20
63445;DHT22;49573;47.682;9.170;2023-05-19T16:21:02;16.30;60.10
63445;DHT22;49573;47.682;9.170;2023-05-19T16:23:48;16.20;60.20
63445;DHT22;49573;47.682;9.170;2023-05-19T16:26:35;16.10;60.20
63445;DHT22;49573;47.682;9.170;2023-05-19T16:29:21;16.10;60.40
63445;DHT22;49573;47.682;9.170;2023-05-19T16:32:07;16.00;60.70
63445;DHT22;49573;47.682;9.170;2023-05-19T16:34:53;16.00;60.90
63445;DHT22;49573;47.682;9.170;2023-05-19T16:37:40;15.90;60.80
63445;DHT22;49573;47.682;9.170;2023-05-19T16:40:26;15.90;61.00
63445;DHT22;49573;47.682;9.170;2023-05-19T16:43:13;15.80;61.20
63445;DHT22;49573;47.682;9.170;2023-05-19T16:45:59;15.80;61.10
63445;DHT22;49573;47.682;9.170;2023-05-19T16:48:48;15.70;61.40
63445;DHT22;49573;47.682;9.170;2023-05-19T16:51:34;15.70;61.60
63445;DHT22;49573;47.682;9.170;2023-05-19T16:54:21;15.60;61.30
63445;DHT22;49573;47.682;9.170;2023-05-19T16:57:08;15.50;61.30
63445;DHT22;49573;47.682;9.170;2023-05-19T16:59:54;15.40;61.90
63445;DHT22;49573;47.682;9.170;2023-05-19T17:02:40;15.50;61.90
63445;DHT22;49573;47.682;9.170;2023-05-19T17:05:26;15.40;62.20
63445;DHT22;49573;47.682;9.170;2023-05-19T17:08:12;15.40;62.00
63445;DHT22;49573;47.682;9.170;2023-05-19T17:11:00;15.30;62.10
63445;DHT22;49573;47.682;9.170;2023-05-19T17:13:46;15.30;62.60
63445;DHT22;49573;47.682;9.170;2023-05-19T17:16:32;15.20;62.20
63445;DHT22;49573;47.682;9.170;2023-05-19T17:19:18;15.20;62.70
63445;DHT22;49573;47.682;9.170;2023-05-19T17:22:04;15.20;62.80
63445;DHT22;49573;47.682;9.170;2023-05-19T17:24:50;15.20;64.00
63445;DHT22;49573;47.682;9.170;2023-05-19T17:27:38;15.20;63.50
63445;DHT22;49573;47.682;9.170;2023-05-19T17:30:24;15.20;63.50
63445;DHT22;49573;47.682;9.170;2023-05-19T17:33:10;15.10;63.60
63445;DHT22;49573;47.682;9.170;2023-05-19T17:35:56;15.10;63.60
63445;DHT22;49573;47.682;9.170;2023-05-19T17:38:42;15.00;64.00
63445;DHT22;49573;47.682;9.170;2023-05-19T17:41:28;15.00;63.70